Time;durP1;ratioP1;P1;durP2;ratioP2;P2;SDS_P1;SDS_P2;PMS_P1;PMS_P2;Temp;Humidity;BMP_temperature;BMP_pressure;BME280_temperature;BME280_humidity;BME280_pressure;Samples;Min_cycle;Max_cycle;Signal;HPM_P1;HPM_P2
2022/10/05 00:00:15;;;;;;;0.90;0.90;;;;;;;;;;4943751;28;21214;-58
2022/10/05 00:02:41;;;;;;;1.20;1.20;;;;;;;;;;4949645;28;20188;-58
2022/10/05 00:05:15;;;;;;;1.10;1.10;;;;;;;;;;4951961;28;20267;-58
2022/10/05 00:07:41;;;;;;;0.90;0.90;;;;;;;;;;4948928;28;20258;-58
2022/10/05 00:10:08;;;;;;;1.00;1.00;;;;;;;;;;4953942;28;20205;-57
2022/10/05 00:12:34;;;;;;;0.80;0.80;;;;;;;;;;4933035;28;20497;-57
2022/10/05 00:15:00;;;;;;;0.73;0.73;;;;;;;;;;4952382;28;20235;-57
2022/10/05 00:17:27;;;;;;;0.80;0.80;;;;;;;;;;4947654;28;20203;-58
2022/10/05 00:19:53;;;;;;;1.20;1.20;;;;;;;;;;4950810;28;20199;-58
2022/10/05 00:22:20;;;;;;;1.30;1.30;;;;;;;;;;4948361;28;20263;-58
2022/10/05 00:24:46;;;;;;;1.20;1.20;;;;;;;;;;4952461;28;20195;-58
2022/10/05 00:27:14;;;;;;;1.33;1.33;;;;;;;;;;4932045;28;20227;-59
2022/10/05 00:29:40;;;;;;;1.30;1.30;;;;;;;;;;4948232;28;20624;-58
2022/10/05 00:32:08;;;;;;;1.20;1.20;;;;;;;;;;4951649;28;20192;-58
2022/10/05 00:34:34;;;;;;;1.37;1.37;;;;;;;;;;4954693;28;20187;-58
2022/10/05 00:36:59;;;;;;;1.60;1.60;;;;;;;;;;4952585;28;20606;-58
2022/10/05 00:39:25;;;;;;;1.37;1.37;;;;;;;;;;4934033;28;20608;-58
2022/10/05 00:41:54;;;;;;;1.13;1.13;;;;;;;;;;4953171;28;20633;-58
2022/10/05 00:44:25;;;;;;;1.40;1.40;;;;;;;;;;4940883;28;20195;-59
2022/10/05 00:46:54;;;;;;;1.30;1.30;;;;;;;;;;4943968;28;20198;-57
2022/10/05 00:49:39;;;;;;;1.30;1.30;;;;;;;;;;4947952;28;20726;-58
2022/10/05 00:52:05;;;;;;;1.50;1.50;;;;;;;;;;4955057;28;20202;-59
2022/10/05 00:54:33;;;;;;;1.20;1.20;;;;;;;;;;4941291;28;20187;-59
2022/10/05 00:57:03;;;;;;;1.47;1.47;;;;;;;;;;4926411;28;20288;-58
2022/10/05 00:59:32;;;;;;;1.40;1.40;;;;;;;;;;4945546;28;21357;-58
2022/10/05 01:02:02;;;;;;;1.50;1.50;;;;;;;;;;4940720;28;20192;-58
2022/10/05 01:04:32;;;;;;;1.50;1.50;;;;;;;;;;4940062;28;20278;-59
2022/10/05 01:07:01;;;;;;;1.50;1.50;;;;;;;;;;4930897;28;20219;-57
2022/10/05 01:09:31;;;;;;;1.53;1.53;;;;;;;;;;4932388;28;20214;-58
2022/10/05 01:12:01;;;;;;;1.30;1.30;;;;;;;;;;4931446;28;20179;-58
2022/10/05 01:14:28;;;;;;;1.47;1.47;;;;;;;;;;4936786;28;20312;-58
2022/10/05 01:16:59;;;;;;;1.10;1.10;;;;;;;;;;4927439;28;20198;-58
2022/10/05 01:19:34;;;;;;;1.43;1.43;;;;;;;;;;4952846;28;20188;-58
2022/10/05 01:22:19;;;;;;;1.50;1.50;;;;;;;;;;4932682;28;20199;-58
2022/10/05 01:24:54;;;;;;;1.40;1.40;;;;;;;;;;4952935;28;20222;-58
2022/10/05 01:27:56;;;;;;;1.30;1.30;;;;;;;;;;4928570;28;20198;-58
2022/10/05 01:30:22;;;;;;;1.50;1.50;;;;;;;;;;4903089;29;20207;-59
2022/10/05 01:32:58;;;;;;;1.60;1.60;;;;;;;;;;4942905;28;20274;-58
2022/10/05 01:35:29;;;;;;;1.93;1.83;;;;;;;;;;4933687;28;20184;-58
2022/10/05 01:37:58;;;;;;;1.53;1.53;;;;;;;;;;4947957;28;20195;-57
2022/10/05 01:40:30;;;;;;;1.60;1.60;;;;;;;;;;4950182;28;20191;-58
2022/10/05 01:43:08;;;;;;;1.83;1.73;;;;;;;;;;4948008;28;20285;-57
2022/10/05 01:45:53;;;;;;;1.60;1.60;;;;;;;;;;4932138;28;20279;-58
2022/10/05 01:48:29;;;;;;;1.87;1.77;;;;;;;;;;4946197;28;20246;-58
2022/10/05 01:51:11;;;;;;;1.90;1.80;;;;;;;;;;4946823;28;20195;-60
2022/10/05 01:53:37;;;;;;;1.90;1.80;;;;;;;;;;4936757;28;20234;-58
2022/10/05 01:56:13;;;;;;;1.97;1.87;;;;;;;;;;4947419;28;20609;-58
2022/10/05 01:58:39;;;;;;;2.10;2.00;;;;;;;;;;4933942;28;20751;-59
2022/10/05 02:01:05;;;;;;;2.00;1.90;;;;;;;;;;4940851;28;20198;-58
2022/10/05 02:03:33;;;;;;;1.80;1.70;;;;;;;;;;4947657;28;20187;-58
2022/10/05 02:06:04;;;;;;;2.20;2.10;;;;;;;;;;4946919;28;20223;-58
2022/10/05 02:08:36;;;;;;;1.77;1.70;;;;;;;;;;4936232;28;20226;-57
2022/10/05 02:11:04;;;;;;;1.90;1.80;;;;;;;;;;4953094;28;20198;-58
2022/10/05 02:13:32;;;;;;;1.73;1.70;;;;;;;;;;4922322;28;20191;-59
2022/10/05 02:15:59;;;;;;;1.50;1.50;;;;;;;;;;4913032;28;1062827;-58
2022/10/05 02:18:49;;;;;;;1.60;1.60;;;;;;;;;;4949538;28;20195;-58
2022/10/05 02:21:15;;;;;;;1.50;1.50;;;;;;;;;;4948530;28;20219;-58
2022/10/05 02:23:41;;;;;;;1.53;1.53;;;;;;;;;;4945400;28;20203;-58
2022/10/05 02:26:08;;;;;;;1.60;1.60;;;;;;;;;;4959922;28;20198;-58
2022/10/05 02:28:34;;;;;;;1.63;1.63;;;;;;;;;;4949523;28;20524;-58
2022/10/05 02:31:01;;;;;;;1.67;1.67;;;;;;;;;;4956641;28;20195;-58
2022/10/05 02:33:27;;;;;;;1.60;1.60;;;;;;;;;;4934734;28;20183;-58
2022/10/05 02:35:53;;;;;;;1.30;1.30;;;;;;;;;;4957627;28;20194;-58
2022/10/05 02:38:36;;;;;;;1.50;1.50;;;;;;;;;;4955870;28;20246;-58
2022/10/05 02:41:13;;;;;;;1.53;1.53;;;;;;;;;;4952067;28;20548;-58
2022/10/05 02:43:42;;;;;;;1.70;1.70;;;;;;;;;;4934686;28;20339;-58
2022/10/05 02:46:27;;;;;;;1.50;1.50;;;;;;;;;;4941987;28;21493;-57
2022/10/05 02:48:55;;;;;;;1.40;1.40;;;;;;;;;;4954166;28;20226;-58
2022/10/05 02:51:24;;;;;;;1.30;1.30;;;;;;;;;;4951938;28;20647;-57
2022/10/05 02:53:59;;;;;;;1.87;1.77;;;;;;;;;;4951278;28;20199;-62
2022/10/05 02:56:34;;;;;;;0.80;0.80;;;;;;;;;;4955952;28;20198;-58
2022/10/05 02:59:19;;;;;;;0.80;0.80;;;;;;;;;;4951806;28;20650;-59
2022/10/05 03:01:59;;;;;;;1.00;1.00;;;;;;;;;;4952717;28;20513;-58
2022/10/05 03:04:39;;;;;;;1.00;1.00;;;;;;;;;;4943523;28;20229;-59
2022/10/05 03:07:13;;;;;;;1.20;1.20;;;;;;;;;;4925730;28;20715;-58
2022/10/05 03:09:52;;;;;;;1.00;1.00;;;;;;;;;;4932904;28;20430;-58
2022/10/05 03:12:25;;;;;;;1.10;1.10;;;;;;;;;;4932099;28;20694;-58
2022/10/05 03:14:51;;;;;;;1.30;1.30;;;;;;;;;;4932227;28;20242;-57
2022/10/05 03:17:18;;;;;;;1.10;1.10;;;;;;;;;;4928445;28;20266;-58
2022/10/05 03:20:05;;;;;;;0.90;0.90;;;;;;;;;;4931230;28;20192;-58
2022/10/05 03:22:38;;;;;;;1.00;1.00;;;;;;;;;;4932353;28;20858;-58
2022/10/05 03:25:04;;;;;;;1.10;1.10;;;;;;;;;;4918171;29;20207;-58
2022/10/05 03:27:36;;;;;;;1.20;1.20;;;;;;;;;;4924819;28;20223;-57
2022/10/05 03:30:04;;;;;;;1.10;1.10;;;;;;;;;;4929916;28;20179;-58
2022/10/05 03:32:34;;;;;;;1.20;1.20;;;;;;;;;;4931313;28;20278;-59
2022/10/05 03:35:09;;;;;;;1.10;1.10;;;;;;;;;;4917861;29;20203;-58
2022/10/05 03:37:49;;;;;;;1.30;1.30;;;;;;;;;;4925823;28;20570;-58
2022/10/05 03:40:21;;;;;;;1.00;1.00;;;;;;;;;;4919825;28;20200;-58
2022/10/05 03:43:05;;;;;;;0.90;0.90;;;;;;;;;;4934846;28;20256;-58
2022/10/05 03:45:46;;;;;;;0.90;0.90;;;;;;;;;;4929453;28;20716;-58
2022/10/05 03:48:18;;;;;;;1.00;1.00;;;;;;;;;;4935735;28;20345;-59
2022/10/05 03:50:45;;;;;;;1.10;1.10;;;;;;;;;;4918448;28;20192;-58
2022/10/05 03:53:21;;;;;;;1.10;1.10;;;;;;;;;;4910694;28;20180;-59
2022/10/05 03:55:55;;;;;;;1.00;1.00;;;;;;;;;;4913974;29;20214;-58
2022/10/05 03:58:21;;;;;;;1.10;1.10;;;;;;;;;;4932283;28;20239;-59
2022/10/05 04:00:48;;;;;;;1.10;1.10;;;;;;;;;;4927497;28;20216;-59
2022/10/05 04:03:25;;;;;;;1.17;1.17;;;;;;;;;;4916061;28;20548;-58
2022/10/05 04:05:53;;;;;;;1.00;1.00;;;;;;;;;;4917370;28;20216;-58
2022/10/05 04:08:19;;;;;;;1.00;1.00;;;;;;;;;;4911387;28;20235;-58
2022/10/05 04:10:46;;;;;;;1.07;1.07;;;;;;;;;;4931535;28;20275;-59
2022/10/05 04:13:23;;;;;;;1.10;1.10;;;;;;;;;;4917434;28;20557;-59
2022/10/05 04:15:49;;;;;;;1.00;1.00;;;;;;;;;;4909319;28;20226;-59
2022/10/05 04:18:26;;;;;;;1.20;1.20;;;;;;;;;;4935054;28;20199;-58
2022/10/05 04:20:54;;;;;;;0.90;0.90;;;;;;;;;;4913093;28;20649;-58
2022/10/05 04:23:31;;;;;;;1.10;1.10;;;;;;;;;;4917091;29;20259;-58
2022/10/05 04:26:00;;;;;;;1.10;1.10;;;;;;;;;;4922115;28;20279;-58
2022/10/05 04:28:44;;;;;;;1.00;1.00;;;;;;;;;;4922180;28;20227;-58
2022/10/05 04:31:11;;;;;;;1.20;1.20;;;;;;;;;;4926768;28;20645;-58
2022/10/05 04:33:37;;;;;;;0.90;0.90;;;;;;;;;;4911674;28;20184;-58
2022/10/05 04:36:15;;;;;;;1.10;1.10;;;;;;;;;;4935268;28;20219;-58
2022/10/05 04:38:48;;;;;;;1.00;1.00;;;;;;;;;;4915011;28;20607;-59
2022/10/05 04:41:33;;;;;;;1.10;1.10;;;;;;;;;;4912726;28;21968;-58
2022/10/05 04:44:22;;;;;;;1.10;1.10;;;;;;;;;;4924306;28;21409;-58
2022/10/05 04:47:04;;;;;;;1.00;1.00;;;;;;;;;;4918085;29;20226;-58
2022/10/05 04:49:37;;;;;;;1.00;1.00;;;;;;;;;;4908148;28;20263;-59
2022/10/05 04:52:11;;;;;;;1.17;1.17;;;;;;;;;;4916416;28;20199;-57
2022/10/05 04:54:47;;;;;;;1.00;1.00;;;;;;;;;;4936805;28;20219;-58
2022/10/05 04:57:20;;;;;;;1.10;1.10;;;;;;;;;;4924521;28;20180;-58
2022/10/05 04:59:46;;;;;;;0.90;0.90;;;;;;;;;;4917764;28;20665;-58
2022/10/05 05:02:12;;;;;;;1.20;1.20;;;;;;;;;;4928545;28;20192;-58
2022/10/05 05:04:56;;;;;;;1.10;1.10;;;;;;;;;;4926532;28;20191;-58
2022/10/05 05:07:41;;;;;;;1.10;1.10;;;;;;;;;;4941591;28;20581;-58
2022/10/05 05:10:13;;;;;;;0.93;0.93;;;;;;;;;;4931279;28;20192;-58
2022/10/05 05:12:46;;;;;;;1.10;1.10;;;;;;;;;;4937230;28;20286;-59
2022/10/05 05:15:28;;;;;;;1.00;1.00;;;;;;;;;;4932900;28;20243;-59
2022/10/05 05:18:01;;;;;;;1.10;1.10;;;;;;;;;;4938917;28;20195;-58
2022/10/05 05:20:30;;;;;;;1.10;1.10;;;;;;;;;;4932843;28;20290;-58
2022/10/05 05:23:05;;;;;;;1.00;1.00;;;;;;;;;;4933003;28;20195;-58
2022/10/05 05:25:37;;;;;;;0.93;0.93;;;;;;;;;;4932550;28;20206;-58
2022/10/05 05:28:06;;;;;;;1.10;1.10;;;;;;;;;;4931219;28;20215;-58
2022/10/05 05:30:55;;;;;;;1.20;1.20;;;;;;;;;;4906815;28;20196;-58
2022/10/05 05:33:40;;;;;;;1.10;1.10;;;;;;;;;;4922352;28;20203;-58
2022/10/05 05:36:12;;;;;;;1.10;1.10;;;;;;;;;;4926570;28;20573;-59
2022/10/05 05:39:00;;;;;;;1.10;1.10;;;;;;;;;;4935274;28;20192;-59
2022/10/05 05:41:37;;;;;;;0.90;0.90;;;;;;;;;;4905175;28;20200;-58
2022/10/05 05:44:16;;;;;;;1.03;1.03;;;;;;;;;;4907223;28;20242;-57
2022/10/05 05:46:53;;;;;;;1.20;1.20;;;;;;;;;;4909484;28;20195;-59
2022/10/05 05:49:21;;;;;;;0.90;0.90;;;;;;;;;;4918350;28;20254;-58
2022/10/05 05:51:49;;;;;;;1.10;1.10;;;;;;;;;;4916965;28;20661;-59
2022/10/05 05:54:15;;;;;;;1.10;1.10;;;;;;;;;;4937512;28;20188;-58
2022/10/05 05:56:46;;;;;;;1.10;1.10;;;;;;;;;;4917111;28;20192;-58
2022/10/05 05:59:17;;;;;;;0.90;0.90;;;;;;;;;;4919983;28;20203;-58
2022/10/05 06:01:44;;;;;;;1.00;1.00;;;;;;;;;;4925157;28;20290;-59
2022/10/05 06:04:12;;;;;;;1.00;1.00;;;;;;;;;;4926371;28;20744;-58
2022/10/05 06:06:39;;;;;;;1.00;1.00;;;;;;;;;;4931010;28;20220;-58
2022/10/05 06:09:06;;;;;;;0.90;0.90;;;;;;;;;;4925809;28;20676;-58
2022/10/05 06:11:36;;;;;;;1.30;1.30;;;;;;;;;;4915576;28;20675;-59
2022/10/05 06:14:04;;;;;;;1.00;1.00;;;;;;;;;;4918531;28;20192;-58
2022/10/05 06:16:47;;;;;;;0.90;0.90;;;;;;;;;;4924591;28;20196;-62
2022/10/05 06:19:14;;;;;;;1.00;1.00;;;;;;;;;;4932293;28;20185;-62
2022/10/05 06:21:46;;;;;;;0.80;0.80;;;;;;;;;;4948936;28;20207;-61
2022/10/05 06:24:14;;;;;;;0.90;0.90;;;;;;;;;;4929873;28;20483;-62
2022/10/05 06:26:59;;;;;;;1.00;1.00;;;;;;;;;;4914648;28;20255;-61
2022/10/05 06:29:25;;;;;;;1.00;1.00;;;;;;;;;;4922229;28;20227;-60
2022/10/05 06:32:01;;;;;;;0.93;0.93;;;;;;;;;;4901451;28;20209;-61
2022/10/05 06:34:38;;;;;;;1.10;1.10;;;;;;;;;;4935934;28;20255;-61
2022/10/05 06:37:06;;;;;;;0.80;0.80;;;;;;;;;;4919847;28;20513;-61
2022/10/05 06:39:33;;;;;;;1.00;1.00;;;;;;;;;;4915612;28;20339;-61
2022/10/05 06:42:18;;;;;;;0.90;0.90;;;;;;;;;;4930063;28;20737;-60
2022/10/05 06:44:47;;;;;;;0.90;0.90;;;;;;;;;;4929100;28;20582;-61
2022/10/05 06:47:16;;;;;;;0.90;0.90;;;;;;;;;;4903115;28;20204;-61
2022/10/05 06:49:52;;;;;;;0.90;0.90;;;;;;;;;;4915063;28;20211;-61
2022/10/05 06:52:18;;;;;;;1.03;1.03;;;;;;;;;;4921789;28;20189;-61
2022/10/05 06:54:47;;;;;;;1.00;1.00;;;;;;;;;;4914212;28;20196;-61
2022/10/05 06:57:16;;;;;;;1.13;1.13;;;;;;;;;;4927809;28;20606;-61
2022/10/05 06:59:45;;;;;;;0.90;0.90;;;;;;;;;;4918225;28;20754;-60
2022/10/05 07:02:17;;;;;;;1.00;1.00;;;;;;;;;;4922816;28;20858;-61
2022/10/05 07:04:46;;;;;;;0.90;0.90;;;;;;;;;;4898872;28;20211;-61
2022/10/05 07:07:21;;;;;;;0.80;0.80;;;;;;;;;;4947176;28;20629;-61
2022/10/05 07:10:03;;;;;;;0.90;0.90;;;;;;;;;;4930385;28;20206;-61
2022/10/05 07:12:36;;;;;;;1.00;1.00;;;;;;;;;;4913804;28;20654;-60
2022/10/05 07:15:17;;;;;;;1.00;1.00;;;;;;;;;;4905906;28;20247;-61
2022/10/05 07:17:50;;;;;;;1.20;1.20;;;;;;;;;;4917092;28;20222;-61
2022/10/05 07:20:18;;;;;;;1.13;1.13;;;;;;;;;;4914276;28;20196;-61
2022/10/05 07:22:57;;;;;;;1.07;1.07;;;;;;;;;;4914252;28;20787;-61
2022/10/05 07:25:23;;;;;;;0.97;0.97;;;;;;;;;;4932178;28;20198;-61
2022/10/05 07:27:58;;;;;;;1.00;1.00;;;;;;;;;;4924008;28;21063;-61
2022/10/05 07:30:24;;;;;;;0.80;0.80;;;;;;;;;;4904834;28;20623;-61
2022/10/05 07:33:08;;;;;;;1.10;1.10;;;;;;;;;;4925727;28;20244;-61
2022/10/05 07:38:33;;;;;;;1.10;1.10;;;;;;;;;;4915783;28;20199;-60
2022/10/05 07:41:10;;;;;;;1.03;1.03;;;;;;;;;;4922375;28;20622;-61
2022/10/05 07:44:06;;;;;;;0.90;0.90;;;;;;;;;;4916620;28;20191;-61
2022/10/05 07:46:35;;;;;;;0.80;0.80;;;;;;;;;;4917541;28;20216;-61
2022/10/05 07:49:02;;;;;;;0.80;0.80;;;;;;;;;;4918017;28;20303;-61
2022/10/05 07:51:33;;;;;;;0.80;0.80;;;;;;;;;;4909181;28;20290;-61
2022/10/05 07:54:05;;;;;;;1.00;1.00;;;;;;;;;;4899529;28;20263;-61
2022/10/05 07:56:42;;;;;;;0.80;0.80;;;;;;;;;;4899345;28;20219;-60
2022/10/05 07:59:31;;;;;;;0.90;0.90;;;;;;;;;;4885784;28;20180;-61
2022/10/05 08:02:05;;;;;;;0.80;0.80;;;;;;;;;;4903489;28;20207;-61
2022/10/05 08:04:34;;;;;;;0.80;0.80;;;;;;;;;;4913168;28;26183;-61
2022/10/05 08:07:01;;;;;;;0.70;0.70;;;;;;;;;;4940045;28;20338;-61
2022/10/05 08:09:36;;;;;;;0.70;0.70;;;;;;;;;;4918431;28;20564;-61
2022/10/05 08:12:04;;;;;;;0.80;0.80;;;;;;;;;;4941678;28;20200;-61
2022/10/05 08:14:32;;;;;;;0.70;0.70;;;;;;;;;;4937920;28;20655;-61
2022/10/05 08:16:59;;;;;;;0.80;0.80;;;;;;;;;;4920262;28;20224;-61
2022/10/05 08:19:29;;;;;;;1.00;1.00;;;;;;;;;;4922345;28;20195;-62
2022/10/05 08:22:04;;;;;;;0.80;0.80;;;;;;;;;;4921766;28;20641;-62
2022/10/05 08:24:38;;;;;;;1.00;1.00;;;;;;;;;;4928038;29;20223;-61
2022/10/05 08:27:13;;;;;;;0.80;0.80;;;;;;;;;;4933837;28;20194;-62
2022/10/05 08:29:46;;;;;;;0.93;0.93;;;;;;;;;;4919125;28;20211;-62
2022/10/05 08:32:14;;;;;;;0.70;0.70;;;;;;;;;;4931489;28;20200;-62
2022/10/05 08:34:59;;;;;;;0.90;0.90;;;;;;;;;;4924251;28;20195;-62
2022/10/05 08:37:30;;;;;;;0.70;0.70;;;;;;;;;;4940385;28;20555;-62
2022/10/05 08:40:16;;;;;;;0.90;0.90;;;;;;;;;;4919517;28;20596;-62
2022/10/05 08:43:00;;;;;;;0.90;0.90;;;;;;;;;;4935713;28;20278;-62
2022/10/05 08:45:45;;;;;;;0.80;0.80;;;;;;;;;;4938578;28;20187;-61
2022/10/05 08:48:18;;;;;;;0.90;0.90;;;;;;;;;;4937387;28;20223;-61
2022/10/05 08:51:02;;;;;;;0.80;0.80;;;;;;;;;;4938403;28;20202;-62
2022/10/05 08:53:31;;;;;;;0.90;0.90;;;;;;;;;;4938112;28;20554;-61
2022/10/05 08:56:16;;;;;;;1.00;1.00;;;;;;;;;;4931919;28;20192;-61
2022/10/05 08:58:48;;;;;;;1.00;1.00;;;;;;;;;;4929705;28;20195;-62
2022/10/05 09:01:37;;;;;;;0.90;0.90;;;;;;;;;;4935888;28;20303;-62
2022/10/05 09:04:10;;;;;;;1.10;1.10;;;;;;;;;;4903929;28;20236;-61
2022/10/05 09:06:59;;;;;;;1.00;1.00;;;;;;;;;;4921236;28;20215;-62
2022/10/05 09:09:25;;;;;;;0.93;0.93;;;;;;;;;;4923582;28;20222;-62
2022/10/05 09:12:00;;;;;;;1.00;1.00;;;;;;;;;;4937382;28;20577;-62
2022/10/05 09:14:39;;;;;;;0.90;0.90;;;;;;;;;;4924926;28;20215;-62
2022/10/05 09:17:23;;;;;;;0.90;0.90;;;;;;;;;;4937614;28;20198;-62
2022/10/05 09:19:53;;;;;;;1.00;1.00;;;;;;;;;;4936710;28;20187;-62
2022/10/05 09:22:31;;;;;;;1.00;1.00;;;;;;;;;;4919400;28;20223;-62
2022/10/05 09:24:57;;;;;;;0.93;0.93;;;;;;;;;;4935192;28;20206;-61
2022/10/05 09:27:30;;;;;;;1.10;1.10;;;;;;;;;;4921373;28;20653;-61
2022/10/05 09:30:05;;;;;;;1.13;1.13;;;;;;;;;;4932661;28;20206;-61
2022/10/05 09:32:45;;;;;;;1.00;1.00;;;;;;;;;;4941527;28;20227;-62
2022/10/05 09:35:25;;;;;;;1.10;1.10;;;;;;;;;;4926671;28;20641;-61
2022/10/05 09:38:10;;;;;;;1.10;1.10;;;;;;;;;;4911472;28;20196;-62
2022/10/05 09:40:54;;;;;;;1.00;1.00;;;;;;;;;;4937086;28;20226;-62
2022/10/05 09:43:23;;;;;;;1.00;1.00;;;;;;;;;;4936577;28;20203;-62
2022/10/05 09:45:54;;;;;;;1.03;1.03;;;;;;;;;;4940516;28;20196;-62
2022/10/05 09:48:26;;;;;;;1.10;1.10;;;;;;;;;;4920091;29;20322;-62
2022/10/05 09:50:58;;;;;;;1.00;1.00;;;;;;;;;;4935977;28;20192;-62
2022/10/05 09:53:24;;;;;;;1.00;1.00;;;;;;;;;;4939901;28;20192;-62
2022/10/05 09:55:56;;;;;;;1.00;1.00;;;;;;;;;;4932769;28;20203;-62
2022/10/05 09:58:29;;;;;;;1.20;1.20;;;;;;;;;;4939943;28;20310;-62
2022/10/05 10:01:13;;;;;;;1.10;1.10;;;;;;;;;;4937696;28;20249;-61
2022/10/05 10:03:57;;;;;;;1.00;1.00;;;;;;;;;;4936944;28;20195;-60
2022/10/05 10:06:33;;;;;;;1.00;1.00;;;;;;;;;;4938954;28;20243;-59
2022/10/05 10:09:09;;;;;;;1.00;1.00;;;;;;;;;;4917132;28;20902;-59
2022/10/05 10:11:50;;;;;;;1.00;1.00;;;;;;;;;;4919226;29;20704;-60
2022/10/05 10:14:23;;;;;;;1.10;1.10;;;;;;;;;;4935330;28;20194;-59
2022/10/05 10:17:01;;;;;;;1.00;1.00;;;;;;;;;;4923708;28;20298;-60
2022/10/05 10:19:27;;;;;;;1.10;1.10;;;;;;;;;;4939254;28;20187;-61
2022/10/05 10:21:56;;;;;;;1.23;1.23;;;;;;;;;;4936614;28;20195;-61
2022/10/05 10:24:31;;;;;;;1.30;1.30;;;;;;;;;;4939903;28;20196;-60
2022/10/05 10:27:04;;;;;;;1.08;1.08;;;;;;;;;;4941626;28;20187;-61
2022/10/05 10:29:30;;;;;;;1.30;1.30;;;;;;;;;;4941843;28;20735;-60
2022/10/05 10:32:05;;;;;;;1.50;1.50;;;;;;;;;;4931524;28;20184;-60
2022/10/05 10:34:40;;;;;;;1.60;1.60;;;;;;;;;;4924135;28;20191;-60
2022/10/05 10:37:22;;;;;;;0.90;0.90;;;;;;;;;;4936866;28;20195;-60
2022/10/05 10:40:06;;;;;;;0.90;0.90;;;;;;;;;;4919368;28;20187;-61
2022/10/05 10:42:45;;;;;;;0.90;0.90;;;;;;;;;;4939116;28;20192;-59
2022/10/05 10:45:30;;;;;;;0.90;0.90;;;;;;;;;;4937081;28;20187;-59
2022/10/05 10:48:00;;;;;;;1.00;1.00;;;;;;;;;;4935889;28;20219;-59
2022/10/05 10:50:32;;;;;;;1.00;1.00;;;;;;;;;;4937520;28;20199;-60
2022/10/05 10:53:04;;;;;;;0.93;0.93;;;;;;;;;;4935556;28;20196;-61
2022/10/05 10:55:34;;;;;;;1.00;1.00;;;;;;;;;;4917644;28;20176;-61
2022/10/05 10:58:12;;;;;;;1.00;1.00;;;;;;;;;;4938295;28;20554;-61
2022/10/05 11:01:01;;;;;;;1.40;1.40;;;;;;;;;;4917039;28;20595;-61
2022/10/05 11:03:46;;;;;;;1.30;1.30;;;;;;;;;;4938232;28;20199;-60
2022/10/05 11:06:12;;;;;;;1.15;1.15;;;;;;;;;;4937082;28;20244;-61
2022/10/05 11:08:58;;;;;;;1.20;1.20;;;;;;;;;;4938961;28;20583;-62
2022/10/05 11:11:42;;;;;;;1.30;1.30;;;;;;;;;;4929639;28;20203;-61
2022/10/05 11:14:27;;;;;;;1.10;1.10;;;;;;;;;;4937946;28;20274;-61
2022/10/05 11:16:59;;;;;;;0.80;0.80;;;;;;;;;;4938090;28;20653;-60
2022/10/05 11:19:34;;;;;;;0.60;0.60;;;;;;;;;;4932313;28;20199;-62
2022/10/05 11:22:08;;;;;;;1.20;1.20;;;;;;;;;;4939740;28;20191;-61
2022/10/05 11:24:37;;;;;;;1.30;1.30;;;;;;;;;;4917767;28;20191;-61
2022/10/05 11:27:22;;;;;;;0.80;0.80;;;;;;;;;;4940341;28;20183;-61
2022/10/05 11:30:00;;;;;;;0.70;0.70;;;;;;;;;;4939817;28;20302;-61
2022/10/05 11:32:35;;;;;;;1.10;1.10;;;;;;;;;;4938090;28;20255;-63
2022/10/05 11:35:17;;;;;;;1.10;1.10;;;;;;;;;;4932042;28;20187;-61
2022/10/05 11:38:02;;;;;;;1.20;1.20;;;;;;;;;;4939522;28;20204;-62
2022/10/05 11:40:36;;;;;;;1.20;1.20;;;;;;;;;;4938716;28;20633;-58
2022/10/05 11:43:13;;;;;;;0.70;0.70;;;;;;;;;;4939791;28;20191;-61
2022/10/05 11:45:45;;;;;;;0.70;0.70;;;;;;;;;;4921913;28;20191;-60
2022/10/05 11:48:12;;;;;;;0.90;0.90;;;;;;;;;;4935549;28;20223;-58
2022/10/05 11:50:38;;;;;;;0.80;0.80;;;;;;;;;;4936092;28;20255;-62
2022/10/05 11:53:06;;;;;;;0.80;0.80;;;;;;;;;;4931656;28;20579;-61
2022/10/05 11:55:36;;;;;;;0.90;0.90;;;;;;;;;;4924879;28;20188;-61
2022/10/05 11:58:16;;;;;;;0.75;0.75;;;;;;;;;;4920962;28;20202;-61
2022/10/05 12:01:03;;;;;;;0.80;0.80;;;;;;;;;;4918806;29;20193;-61
2022/10/05 12:03:29;;;;;;;0.63;0.63;;;;;;;;;;4927129;28;20261;-61
2022/10/05 12:06:24;;;;;;;0.70;0.70;;;;;;;;;;4931949;28;20302;-62
2022/10/05 12:08:56;;;;;;;0.70;0.70;;;;;;;;;;4886895;29;20245;-62
2022/10/05 12:11:29;;;;;;;0.70;0.70;;;;;;;;;;4934295;28;20642;-63
2022/10/05 12:13:58;;;;;;;0.70;0.70;;;;;;;;;;4936933;28;20199;-62
2022/10/05 12:16:26;;;;;;;0.68;0.68;;;;;;;;;;4951237;28;20791;-59
2022/10/05 12:18:52;;;;;;;0.63;0.63;;;;;;;;;;4954390;28;20699;-61
2022/10/05 12:21:18;;;;;;;0.70;0.70;;;;;;;;;;4952569;28;20270;-60
2022/10/05 12:23:49;;;;;;;0.70;0.70;;;;;;;;;;4948527;28;20195;-62
2022/10/05 12:26:25;;;;;;;0.60;0.60;;;;;;;;;;4935540;28;20186;-61
2022/10/05 12:28:57;;;;;;;0.68;0.68;;;;;;;;;;4954003;28;20225;-60
2022/10/05 12:31:30;;;;;;;0.60;0.60;;;;;;;;;;4956269;28;20190;-67
2022/10/05 12:33:59;;;;;;;0.80;0.80;;;;;;;;;;4943333;28;20862;-70
2022/10/05 12:36:29;;;;;;;1.10;1.10;;;;;;;;;;4952026;28;20251;-69
2022/10/05 12:38:55;;;;;;;1.10;1.10;;;;;;;;;;4962927;28;20199;-69
2022/10/05 12:41:30;;;;;;;1.13;1.13;;;;;;;;;;4954690;28;20203;-69
2022/10/05 12:43:56;;;;;;;1.10;1.10;;;;;;;;;;4958795;28;20186;-66
2022/10/05 12:46:38;;;;;;;1.13;1.13;;;;;;;;;;4950607;28;20194;-69
2022/10/05 12:49:08;;;;;;;1.10;1.10;;;;;;;;;;4945101;28;20218;-70
2022/10/05 12:51:38;;;;;;;1.20;1.20;;;;;;;;;;4956487;28;20198;-67
2022/10/05 12:54:13;;;;;;;1.20;1.20;;;;;;;;;;4957147;28;20473;-65
2022/10/05 12:56:43;;;;;;;1.10;1.10;;;;;;;;;;4923656;28;21239;-66
2022/10/05 12:59:13;;;;;;;1.00;1.00;;;;;;;;;;4944553;28;20766;-67
2022/10/05 13:01:43;;;;;;;1.10;1.10;;;;;;;;;;4939737;28;20187;-66
2022/10/05 13:04:13;;;;;;;0.70;0.70;;;;;;;;;;4937040;28;21061;-70
2022/10/05 13:06:50;;;;;;;1.10;1.10;;;;;;;;;;4944029;28;20735;-69
2022/10/05 13:09:28;;;;;;;1.10;1.10;;;;;;;;;;4943056;28;20210;-66
2022/10/05 13:11:59;;;;;;;1.00;1.00;;;;;;;;;;4946736;28;20191;-68
2022/10/05 13:14:25;;;;;;;1.00;1.00;;;;;;;;;;4939411;28;20234;-66
2022/10/05 13:16:54;;;;;;;1.00;1.00;;;;;;;;;;4958296;28;20187;-68
2022/10/05 13:19:40;;;;;;;1.00;1.00;;;;;;;;;;4963063;28;20754;-68
2022/10/05 13:22:15;;;;;;;1.20;1.20;;;;;;;;;;4961010;28;20461;-68
2022/10/05 13:24:54;;;;;;;1.30;1.30;;;;;;;;;;4957914;28;20183;-69
2022/10/05 13:27:21;;;;;;;1.30;1.30;;;;;;;;;;4947397;28;20183;-66
2022/10/05 13:30:11;;;;;;;1.30;1.30;;;;;;;;;;4942402;28;20224;-65
2022/10/05 13:32:40;;;;;;;0.77;0.77;;;;;;;;;;4941419;28;20187;-68
2022/10/05 13:35:17;;;;;;;0.70;0.70;;;;;;;;;;4958233;28;20195;-67
2022/10/05 13:38:01;;;;;;;0.73;0.73;;;;;;;;;;4936421;28;20183;-67
2022/10/05 13:40:27;;;;;;;0.80;0.80;;;;;;;;;;4950040;28;20191;-67
2022/10/05 13:43:02;;;;;;;0.77;0.77;;;;;;;;;;4958542;28;20210;-64
2022/10/05 13:45:48;;;;;;;0.70;0.70;;;;;;;;;;4958030;28;20193;-67
2022/10/05 13:48:21;;;;;;;0.70;0.70;;;;;;;;;;4960381;28;20584;-64
2022/10/05 13:50:54;;;;;;;0.73;0.73;;;;;;;;;;4951690;28;20194;-67
2022/10/05 13:53:25;;;;;;;0.80;0.80;;;;;;;;;;4953455;28;20183;-65
2022/10/05 13:55:57;;;;;;;0.80;0.80;;;;;;;;;;4954004;28;20674;-65
2022/10/05 13:58:41;;;;;;;0.80;0.80;;;;;;;;;;4956618;28;20180;-66
2022/10/05 14:01:08;;;;;;;0.70;0.70;;;;;;;;;;4939121;28;20265;-65
2022/10/05 14:03:35;;;;;;;0.70;0.70;;;;;;;;;;4958162;28;20265;-65
2022/10/05 14:06:02;;;;;;;0.80;0.80;;;;;;;;;;4958319;28;20679;-65
2022/10/05 14:08:30;;;;;;;0.80;0.80;;;;;;;;;;4943130;28;20206;-65
2022/10/05 14:10:57;;;;;;;0.80;0.80;;;;;;;;;;4941642;28;20198;-64
2022/10/05 14:13:31;;;;;;;0.80;0.80;;;;;;;;;;4945063;28;20274;-66
2022/10/05 14:16:12;;;;;;;0.70;0.70;;;;;;;;;;4959328;28;20233;-66
2022/10/05 14:18:49;;;;;;;0.80;0.80;;;;;;;;;;4958917;28;21452;-64
2022/10/05 14:21:21;;;;;;;0.80;0.80;;;;;;;;;;4924137;28;20714;-62
2022/10/05 14:23:47;;;;;;;0.90;0.90;;;;;;;;;;4931478;28;20247;-61
2022/10/05 14:26:25;;;;;;;0.80;0.80;;;;;;;;;;4934633;28;20220;-61
2022/10/05 14:28:57;;;;;;;0.90;0.90;;;;;;;;;;4948237;28;20207;-62
2022/10/05 14:31:27;;;;;;;0.80;0.80;;;;;;;;;;4946215;28;20187;-61
2022/10/05 14:33:53;;;;;;;0.80;0.80;;;;;;;;;;4927557;28;20198;-61
2022/10/05 14:36:35;;;;;;;0.90;0.90;;;;;;;;;;4951390;28;20175;-61
2022/10/05 14:39:03;;;;;;;0.88;0.88;;;;;;;;;;4943338;28;20274;-61
2022/10/05 14:41:33;;;;;;;0.90;0.90;;;;;;;;;;4946379;28;20912;-61
2022/10/05 14:44:08;;;;;;;0.80;0.80;;;;;;;;;;4941385;28;20191;-62
2022/10/05 14:46:35;;;;;;;0.90;0.90;;;;;;;;;;4933807;28;20901;-62
2022/10/05 14:49:16;;;;;;;0.90;0.90;;;;;;;;;;4955968;28;20204;-63
2022/10/05 14:51:42;;;;;;;0.90;0.90;;;;;;;;;;4943056;28;20202;-62
2022/10/05 14:54:26;;;;;;;0.80;0.80;;;;;;;;;;4937236;28;20191;-63
2022/10/05 14:57:11;;;;;;;0.82;0.82;;;;;;;;;;4915707;28;20202;-62
2022/10/05 14:59:44;;;;;;;0.85;0.85;;;;;;;;;;4940867;28;20274;-62
2022/10/05 15:02:30;;;;;;;0.85;0.85;;;;;;;;;;4930705;28;20274;-62
2022/10/05 15:05:00;;;;;;;0.85;0.85;;;;;;;;;;4942571;28;20917;-63
2022/10/05 15:07:30;;;;;;;0.80;0.80;;;;;;;;;;4935046;28;20182;-62
2022/10/05 15:09:56;;;;;;;0.80;0.80;;;;;;;;;;4937376;28;20230;-62
2022/10/05 15:12:30;;;;;;;0.90;0.90;;;;;;;;;;4945602;28;20191;-62
2022/10/05 15:15:00;;;;;;;0.85;0.85;;;;;;;;;;4926446;28;20230;-62
2022/10/05 15:17:29;;;;;;;0.90;0.90;;;;;;;;;;4931226;28;20196;-62
2022/10/05 15:20:16;;;;;;;0.90;0.90;;;;;;;;;;4925217;28;20191;-61
2022/10/05 15:22:54;;;;;;;0.90;0.90;;;;;;;;;;4926351;28;20938;-64